sensor_id;sensor_type;location;lat;lon;timestamp;pressure;altitude;pressure_sealevel;temperature;humidity
74169;BME280;62523;53.336;83.690;2023-03-01T00:03:43;99385.22;;;-3.16;70.55
74169;BME280;62523;53.336;83.690;2023-03-01T00:08:44;99381.81;;;-3.15;69.93
74169;BME280;62523;53.336;83.690;2023-03-01T00:13:47;99352.59;;;-3.26;70.53
74169;BME280;62523;53.336;83.690;2023-03-01T00:18:49;99390.38;;;-3.04;70.03
74169;BME280;62523;53.336;83.690;2023-03-01T00:23:51;99389.53;;;-3.01;69.56
74169;BME280;62523;53.336;83.690;2023-03-01T00:28:53;99391.25;;;-3.02;69.78
74169;BME280;62523;53.336;83.690;2023-03-01T00:34:00;99380.94;;;-3.02;70.11
74169;BME280;62523;53.336;83.690;2023-03-01T00:39:03;99377.50;;;-2.99;69.63
74169;BME280;62523;53.336;83.690;2023-03-01T00:44:05;99368.91;;;-3.06;69.71
74169;BME280;62523;53.336;83.690;2023-03-01T00:49:06;99361.16;;;-3.01;69.89
74169;BME280;62523;53.336;83.690;2023-03-01T00:54:08;99367.19;;;-3.04;69.64
74169;BME280;62523;53.336;83.690;2023-03-01T00:59:10;99353.44;;;-3.00;69.95
74169;BME280;62523;53.336;83.690;2023-03-01T01:04:13;99367.22;;;-3.07;69.81
74169;BME280;62523;53.336;83.690;2023-03-01T01:09:16;99367.19;;;-3.05;70.73
74169;BME280;62523;53.336;83.690;2023-03-01T01:14:18;99376.63;;;-3.01;70.30
74169;BME280;62523;53.336;83.690;2023-03-01T01:19:20;99384.38;;;-3.01;70.71
74169;BME280;62523;53.336;83.690;2023-03-01T01:24:22;99392.97;;;-3.02;70.99
74169;BME280;62523;53.336;83.690;2023-03-01T01:29:23;99375.78;;;-2.99;70.45
74169;BME280;62523;53.336;83.690;2023-03-01T01:34:24;99362.03;;;-2.98;71.30
74169;BME280;62523;53.336;83.690;2023-03-01T01:39:25;99378.34;;;-2.91;70.89
74169;BME280;62523;53.336;83.690;2023-03-01T01:44:27;99386.97;;;-2.86;70.34
74169;BME280;62523;53.336;83.690;2023-03-01T01:49:41;99377.47;;;-2.82;70.05
74169;BME280;62523;53.336;83.690;2023-03-01T01:55:07;99369.75;;;-2.84;70.51
74169;BME280;62523;53.336;83.690;2023-03-01T02:00:13;99369.72;;;-2.78;69.72
74169;BME280;62523;53.336;83.690;2023-03-01T02:10:38;99385.19;;;-2.73;70.03
74169;BME280;62523;53.336;83.690;2023-03-01T02:15:40;99361.16;;;-2.75;70.14
74169;BME280;62523;53.336;83.690;2023-03-01T02:26:00;99363.72;;;-2.66;69.30
74169;BME280;62523;53.336;83.690;2023-03-01T02:31:05;99400.63;;;-2.50;69.19
74169;BME280;62523;53.336;83.690;2023-03-01T02:36:29;99387.72;;;-2.36;68.64
74169;BME280;62523;53.336;83.690;2023-03-01T02:41:35;99366.22;;;-2.44;67.92
74169;BME280;62523;53.336;83.690;2023-03-01T02:46:46;99376.50;;;-2.31;68.06
74169;BME280;62523;53.336;83.690;2023-03-01T02:57:01;99385.03;;;-2.13;67.47
74169;BME280;62523;53.336;83.690;2023-03-01T03:02:03;99383.31;;;-2.08;67.14
74169;BME280;62523;53.336;83.690;2023-03-01T03:07:04;99383.28;;;-2.07;67.17
74169;BME280;62523;53.336;83.690;2023-03-01T03:12:05;99385.88;;;-2.07;66.98
74169;BME280;62523;53.336;83.690;2023-03-01T03:17:06;99385.00;;;-2.02;66.84
74169;BME280;62523;53.336;83.690;2023-03-01T03:22:07;99387.56;;;-2.02;66.69
74169;BME280;62523;53.336;83.690;2023-03-01T03:27:09;99399.66;;;-2.06;67.24
74169;BME280;62523;53.336;83.690;2023-03-01T03:32:10;99385.00;;;-2.04;67.08
74169;BME280;62523;53.336;83.690;2023-03-01T03:37:11;99397.91;;;-2.02;67.23
74169;BME280;62523;53.336;83.690;2023-03-01T03:42:32;99413.38;;;-2.01;67.02
74169;BME280;62523;53.336;83.690;2023-03-01T03:47:33;99418.56;;;-2.06;66.28
74169;BME280;62523;53.336;83.690;2023-03-01T03:52:35;99415.06;;;-1.91;66.59
74169;BME280;62523;53.336;83.690;2023-03-01T03:57:37;99415.94;;;-1.90;67.44
74169;BME280;62523;53.336;83.690;2023-03-01T04:02:42;99407.31;;;-1.84;67.15
74169;BME280;62523;53.336;83.690;2023-03-01T04:07:44;99393.50;;;-1.77;66.30
74169;BME280;62523;53.336;83.690;2023-03-01T04:12:46;99377.22;;;-1.93;66.46
74169;BME280;62523;53.336;83.690;2023-03-01T04:17:47;99411.53;;;-1.73;66.64
74169;BME280;62523;53.336;83.690;2023-03-01T04:22:48;99387.34;;;-1.56;65.72
74169;BME280;62523;53.336;83.690;2023-03-01T04:27:49;99390.78;;;-1.54;65.90
74169;BME280;62523;53.336;83.690;2023-03-01T04:32:50;99390.75;;;-1.48;66.21
74169;BME280;62523;53.336;83.690;2023-03-01T04:37:51;99373.53;;;-1.55;65.71
74169;BME280;62523;53.336;83.690;2023-03-01T04:42:53;99390.75;;;-1.50;66.42
74169;BME280;62523;53.336;83.690;2023-03-01T04:47:55;99372.59;;;-1.42;65.80
74169;BME280;62523;53.336;83.690;2023-03-01T04:53:01;99382.94;;;-1.37;65.63
74169;BME280;62523;53.336;83.690;2023-03-01T04:58:02;99370.69;;;-1.15;65.25
74169;BME280;62523;53.336;83.690;2023-03-01T05:03:03;99370.81;;;-1.31;65.56
74169;BME280;62523;53.336;83.690;2023-03-01T05:08:07;99388.63;;;-0.97;65.87
74169;BME280;62523;53.336;83.690;2023-03-01T05:13:09;99370.59;;;-1.08;65.53
74169;BME280;62523;53.336;83.690;2023-03-01T05:18:10;99354.34;;;-1.17;66.26
74169;BME280;62523;53.336;83.690;2023-03-01T05:23:12;99377.47;;;-1.04;65.91
74169;BME280;62523;53.336;83.690;2023-03-01T05:28:13;99387.72;;;-0.88;65.46
74169;BME280;62523;53.336;83.690;2023-03-01T05:33:14;99386.75;;;-0.79;65.25
74169;BME280;62523;53.336;83.690;2023-03-01T05:38:16;99389.41;;;-0.89;65.49
74169;BME280;62523;53.336;83.690;2023-03-01T05:43:17;99378.13;;;-0.80;65.17
74169;BME280;62523;53.336;83.690;2023-03-01T05:48:18;99372.00;;;-0.68;64.94
74169;BME280;62523;53.336;83.690;2023-03-01T05:53:20;99375.28;;;-0.54;64.46
74169;BME280;62523;53.336;83.690;2023-03-01T05:58:21;99363.38;;;-0.70;64.42
74169;BME280;62523;53.336;83.690;2023-03-01T06:03:23;99376.28;;;-0.66;64.77
74169;BME280;62523;53.336;83.690;2023-03-01T06:08:24;99376.31;;;-0.69;64.42
74169;BME280;62523;53.336;83.690;2023-03-01T06:13:27;99387.38;;;-0.54;65.08
74169;BME280;62523;53.336;83.690;2023-03-01T06:18:28;99370.94;;;-0.49;64.66
74169;BME280;62523;53.336;83.690;2023-03-01T06:23:29;99348.50;;;-0.48;64.06
74169;BME280;62523;53.336;83.690;2023-03-01T06:28:30;99366.22;;;-0.16;63.67
74169;BME280;62523;53.336;83.690;2023-03-01T06:33:32;99347.13;;;-0.04;63.41
74169;BME280;62523;53.336;83.690;2023-03-01T06:38:33;99351.88;;;0.28;62.06
74169;BME280;62523;53.336;83.690;2023-03-01T06:43:34;99347.53;;;0.27;62.27
74169;BME280;62523;53.336;83.690;2023-03-01T06:48:38;99340.13;;;-0.01;62.04
74169;BME280;62523;53.336;83.690;2023-03-01T06:53:41;99335.78;;;0.05;61.39
74169;BME280;62523;53.336;83.690;2023-03-01T06:58:42;99338.13;;;0.22;61.30
74169;BME280;62523;53.336;83.690;2023-03-01T07:03:43;99331.06;;;0.31;60.98
74169;BME280;62523;53.336;83.690;2023-03-01T07:08:47;99321.75;;;0.19;62.20
74169;BME280;62523;53.336;83.690;2023-03-01T07:13:48;99317.56;;;0.11;60.94
74169;BME280;62523;53.336;83.690;2023-03-01T07:18:52;99322.38;;;0.37;61.34
74169;BME280;62523;53.336;83.690;2023-03-01T07:23:56;99321.47;;;0.38;60.90
74169;BME280;62523;53.336;83.690;2023-03-01T07:28:59;99314.00;;;0.74;60.69
74169;BME280;62523;53.336;83.690;2023-03-01T07:34:00;99319.19;;;0.75;60.74
74169;BME280;62523;53.336;83.690;2023-03-01T07:39:02;99298.84;;;1.00;60.14
74169;BME280;62523;53.336;83.690;2023-03-01T07:44:03;99294.75;;;0.89;61.26
74169;BME280;62523;53.336;83.690;2023-03-01T07:49:05;99288.50;;;0.99;61.53
74169;BME280;62523;53.336;83.690;2023-03-01T07:54:06;99299.28;;;1.24;61.18
74169;BME280;62523;53.336;83.690;2023-03-01T07:59:07;99309.78;;;1.18;61.10
74169;BME280;62523;53.336;83.690;2023-03-01T08:04:08;99300.50;;;1.06;61.03
74169;BME280;62523;53.336;83.690;2023-03-01T08:09:09;99301.13;;;1.19;60.56
74169;BME280;62523;53.336;83.690;2023-03-01T08:14:10;99295.09;;;1.17;60.78
74169;BME280;62523;53.336;83.690;2023-03-01T08:19:12;99314.84;;;1.24;60.34
74169;BME280;62523;53.336;83.690;2023-03-01T08:24:13;99300.63;;;1.45;60.31
74169;BME280;62523;53.336;83.690;2023-03-01T08:29:14;99300.09;;;1.28;60.26
74169;BME280;62523;53.336;83.690;2023-03-01T08:34:17;99309.84;;;1.13;60.71
74169;BME280;62523;53.336;83.690;2023-03-01T08:39:19;99297.88;;;1.08;59.84
74169;BME280;62523;53.336;83.690;2023-03-01T08:44:21;99305.59;;;1.11;60.66
74169;BME280;62523;53.336;83.690;2023-03-01T08:49:22;99291.75;;;1.10;59.74
74169;BME280;62523;53.336;83.690;2023-03-01T08:54:24;99300.28;;;1.17;59.17
74169;BME280;62523;53.336;83.690;2023-03-01T08:59:26;99290.28;;;0.97;61.34
74169;BME280;62523;53.336;83.690;2023-03-01T09:04:29;99310.22;;;0.93;60.38
74169;BME280;62523;53.336;83.690;2023-03-01T09:09:31;99290.50;;;0.85;61.71
74169;BME280;62523;53.336;83.690;2023-03-01T09:14:32;99270.97;;;0.64;61.90
74169;BME280;62523;53.336;83.690;2023-03-01T09:19:33;99298.19;;;0.89;61.10
74169;BME280;62523;53.336;83.690;2023-03-01T09:24:34;99294.69;;;0.92;61.68
74169;BME280;62523;53.336;83.690;2023-03-01T09:29:36;99306.81;;;0.91;62.51
74169;BME280;62523;53.336;83.690;2023-03-01T09:34:38;99285.97;;;0.96;62.04
74169;BME280;62523;53.336;83.690;2023-03-01T09:39:59;99301.34;;;1.07;61.78
74169;BME280;62523;53.336;83.690;2023-03-01T09:45:11;99292.00;;;0.96;61.87
74169;BME280;62523;53.336;83.690;2023-03-01T09:50:21;99282.25;;;1.09;61.52
74169;BME280;62523;53.336;83.690;2023-03-01T09:55:33;99305.78;;;0.98;62.66
74169;BME280;62523;53.336;83.690;2023-03-01T10:00:49;99278.28;;;0.91;61.47
74169;BME280;62523;53.336;83.690;2023-03-01T10:06:01;99286.63;;;1.07;62.12
74169;BME280;62523;53.336;83.690;2023-03-01T10:11:17;99265.78;;;1.12;61.48
74169;BME280;62523;53.336;83.690;2023-03-01T10:16:50;99261.50;;;1.09;61.80
74169;BME280;62523;53.336;83.690;2023-03-01T10:21:50;99271.72;;;1.18;62.23
74169;BME280;62523;53.336;83.690;2023-03-01T10:26:56;99257.88;;;1.18;61.04
74169;BME280;62523;53.336;83.690;2023-03-01T10:31:58;99261.06;;;0.86;61.89
74169;BME280;62523;53.336;83.690;2023-03-01T10:37:12;99268.00;;;0.84;62.28
74169;BME280;62523;53.336;83.690;2023-03-01T10:42:26;99279.47;;;0.72;61.79
74169;BME280;62523;53.336;83.690;2023-03-01T10:47:31;99256.13;;;0.73;62.09
74169;BME280;62523;53.336;83.690;2023-03-01T10:52:37;99259.56;;;0.74;62.58
74169;BME280;62523;53.336;83.690;2023-03-01T10:57:41;99263.94;;;0.69;62.03
74169;BME280;62523;53.336;83.690;2023-03-01T11:02:42;99250.28;;;0.60;62.33
74169;BME280;62523;53.336;83.690;2023-03-01T11:12:53;99260.47;;;0.71;60.69
74169;BME280;62523;53.336;83.690;2023-03-01T11:17:56;99271.72;;;0.69;61.12
74169;BME280;62523;53.336;83.690;2023-03-01T11:23:17;99255.47;;;0.60;61.54
74169;BME280;62523;53.336;83.690;2023-03-01T11:28:20;99272.53;;;0.72;60.77
74169;BME280;62523;53.336;83.690;2023-03-01T11:33:46;99270.03;;;0.68;60.52
74169;BME280;62523;53.336;83.690;2023-03-01T11:38:49;99253.88;;;0.52;61.05
74169;BME280;62523;53.336;83.690;2023-03-01T11:44:03;99268.53;;;0.53;61.55
74169;BME280;62523;53.336;83.690;2023-03-01T12:10:42;99251.34;;;0.47;61.47
74169;BME280;62523;53.336;83.690;2023-03-01T12:16:03;99252.22;;;0.48;61.86
74169;BME280;62523;53.336;83.690;2023-03-01T12:37:55;99245.47;;;0.39;61.17
74169;BME280;62523;53.336;83.690;2023-03-01T12:54:23;99231.69;;;0.35;62.13
74169;BME280;62523;53.336;83.690;2023-03-01T12:59:36;99223.34;;;0.15;62.43
74169;BME280;62523;53.336;83.690;2023-03-01T13:10:16;99232.88;;;0.14;63.54
74169;BME280;62523;53.336;83.690;2023-03-01T13:31:06;99201.94;;;0.05;63.50
74169;BME280;62523;53.336;83.690;2023-03-01T13:36:08;99215.66;;;0.10;63.98
74169;BME280;62523;53.336;83.690;2023-03-01T13:41:10;99210.38;;;0.18;63.45
74169;BME280;62523;53.336;83.690;2023-03-01T13:51:23;99193.91;;;0.20;63.19
74169;BME280;62523;53.336;83.690;2023-03-01T13:56:27;99191.91;;;0.36;62.48
74169;BME280;62523;53.336;83.690;2023-03-01T14:01:35;99182.56;;;0.28;62.10
74169;BME280;62523;53.336;83.690;2023-03-01T14:06:37;99187.03;;;0.19;62.49
74169;BME280;62523;53.336;83.690;2023-03-01T14:16:48;99181.53;;;0.38;61.62
74169;BME280;62523;53.336;83.690;2023-03-01T14:27:19;99196.03;;;0.50;60.40
74169;BME280;62523;53.336;83.690;2023-03-01T14:32:22;99197.63;;;0.57;59.71
74169;BME280;62523;53.336;83.690;2023-03-01T14:37:30;99198.88;;;0.34;60.84
74169;BME280;62523;53.336;83.690;2023-03-01T14:42:35;99172.34;;;0.22;60.95
74169;BME280;62523;53.336;83.690;2023-03-01T14:47:37;99175.78;;;0.20;61.64
74169;BME280;62523;53.336;83.690;2023-03-01T14:52:42;99180.91;;;0.24;61.01
74169;BME280;62523;53.336;83.690;2023-03-01T14:57:48;99182.72;;;0.20;60.55
74169;BME280;62523;53.336;83.690;2023-03-01T15:02:52;99163.56;;;0.29;59.95
74169;BME280;62523;53.336;83.690;2023-03-01T15:07:54;99158.56;;;0.18;60.92
74169;BME280;62523;53.336;83.690;2023-03-01T15:12:56;99166.34;;;0.16;61.26
74169;BME280;62523;53.336;83.690;2023-03-01T15:18:26;99146.53;;;0.15;61.02
74169;BME280;62523;53.336;83.690;2023-03-01T15:23:29;99174.78;;;0.29;60.73
74169;BME280;62523;53.336;83.690;2023-03-01T15:28:33;99179.03;;;0.32;60.52
74169;BME280;62523;53.336;83.690;2023-03-01T15:33:37;99160.88;;;0.33;60.43
74169;BME280;62523;53.336;83.690;2023-03-01T15:38:52;99151.41;;;0.32;61.06
74169;BME280;62523;53.336;83.690;2023-03-01T15:43:55;99129.97;;;0.23;61.21
74169;BME280;62523;53.336;83.690;2023-03-01T15:48:58;99115.19;;;0.29;61.18
74169;BME280;62523;53.336;83.690;2023-03-01T15:54:20;99122.22;;;0.21;61.49
74169;BME280;62523;53.336;83.690;2023-03-01T15:59:22;99136.84;;;0.25;62.01
74169;BME280;62523;53.336;83.690;2023-03-01T16:04:23;99127.59;;;0.10;62.48
74169;BME280;62523;53.336;83.690;2023-03-01T16:09:26;99113.81;;;0.08;62.85
74169;BME280;62523;53.336;83.690;2023-03-01T16:14:27;99122.66;;;-0.04;63.32
74169;BME280;62523;53.336;83.690;2023-03-01T16:19:29;99132.94;;;0.01;64.19
74169;BME280;62523;53.336;83.690;2023-03-01T16:24:30;99137.41;;;-0.09;65.39
74169;BME280;62523;53.336;83.690;2023-03-01T16:29:32;99111.66;;;-0.18;65.40
74169;BME280;62523;53.336;83.690;2023-03-01T16:34:33;99108.97;;;-0.10;65.68
74169;BME280;62523;53.336;83.690;2023-03-01T16:39:38;99102.88;;;-0.09;65.46
74169;BME280;62523;53.336;83.690;2023-03-01T16:44:39;99107.19;;;-0.08;65.30
74169;BME280;62523;53.336;83.690;2023-03-01T16:49:40;99088.25;;;-0.12;65.86
74169;BME280;62523;53.336;83.690;2023-03-01T16:54:43;99084.72;;;-0.06;65.17
74169;BME280;62523;53.336;83.690;2023-03-01T16:59:44;99076.22;;;-0.14;65.55
74169;BME280;62523;53.336;83.690;2023-03-01T17:04:52;99050.56;;;-0.28;65.89
74169;BME280;62523;53.336;83.690;2023-03-01T17:09:54;99083.16;;;-0.15;65.49
74169;BME280;62523;53.336;83.690;2023-03-01T17:14:55;99066.97;;;-0.29;65.37
74169;BME280;62523;53.336;83.690;2023-03-01T17:19:56;99061.66;;;-0.22;65.72
74169;BME280;62523;53.336;83.690;2023-03-01T17:24:58;99050.44;;;-0.19;65.40
74169;BME280;62523;53.336;83.690;2023-03-01T17:29:59;99041.03;;;-0.26;65.80
74169;BME280;62523;53.336;83.690;2023-03-01T17:35:00;99028.13;;;-0.28;65.30
74169;BME280;62523;53.336;83.690;2023-03-01T17:40:01;99013.72;;;-0.44;65.40
74169;BME280;62523;53.336;83.690;2023-03-01T17:45:03;99034.25;;;-0.32;65.45
74169;BME280;62523;53.336;83.690;2023-03-01T17:50:05;99050.69;;;-0.34;66.04
74169;BME280;62523;53.336;83.690;2023-03-01T17:55:08;99018.81;;;-0.38;65.36
74169;BME280;62523;53.336;83.690;2023-03-01T18:00:12;99008.50;;;-0.41;65.42
74169;BME280;62523;53.336;83.690;2023-03-01T18:05:14;98998.84;;;-0.31;65.05
74169;BME280;62523;53.336;83.690;2023-03-01T18:10:16;99009.41;;;-0.44;66.54
74169;BME280;62523;53.336;83.690;2023-03-01T18:15:18;99017.22;;;-0.45;65.76
74169;BME280;62523;53.336;83.690;2023-03-01T18:20:19;99023.25;;;-0.45;66.20
74169;BME280;62523;53.336;83.690;2023-03-01T18:25:20;99002.53;;;-0.45;65.62
74169;BME280;62523;53.336;83.690;2023-03-01T18:30:22;98982.69;;;-0.46;65.83
74169;BME280;62523;53.336;83.690;2023-03-01T18:35:23;98987.97;;;-0.52;65.98
74169;BME280;62523;53.336;83.690;2023-03-01T18:40:24;98999.97;;;-0.48;65.78
74169;BME280;62523;53.336;83.690;2023-03-01T18:45:26;98995.06;;;-0.65;66.65
74169;BME280;62523;53.336;83.690;2023-03-01T18:50:27;99000.03;;;-0.49;65.95
74169;BME280;62523;53.336;83.690;2023-03-01T18:55:29;98951.16;;;-0.66;66.08
74169;BME280;62523;53.336;83.690;2023-03-01T19:00:32;98994.03;;;-0.53;66.05
74169;BME280;62523;53.336;83.690;2023-03-01T19:05:33;98981.09;;;-0.51;66.17
74169;BME280;62523;53.336;83.690;2023-03-01T19:10:34;98987.00;;;-0.45;65.96
74169;BME280;62523;53.336;83.690;2023-03-01T19:15:35;98976.56;;;-0.40;65.14
74169;BME280;62523;53.336;83.690;2023-03-01T19:20:37;98986.34;;;-0.56;65.97
74169;BME280;62523;53.336;83.690;2023-03-01T19:25:38;98958.72;;;-0.55;64.95
74169;BME280;62523;53.336;83.690;2023-03-01T19:30:39;98991.53;;;-0.56;66.24
74169;BME280;62523;53.336;83.690;2023-03-01T19:35:40;98985.50;;;-0.58;66.02
74169;BME280;62523;53.336;83.690;2023-03-01T19:40:41;98981.22;;;-0.60;66.39
74169;BME280;62523;53.336;83.690;2023-03-01T19:45:42;98984.78;;;-0.68;66.64
74169;BME280;62523;53.336;83.690;2023-03-01T19:50:43;98961.69;;;-0.78;66.57
74169;BME280;62523;53.336;83.690;2023-03-01T19:55:47;98967.69;;;-0.75;66.79
74169;BME280;62523;53.336;83.690;2023-03-01T20:00:52;98958.84;;;-0.63;66.13
74169;BME280;62523;53.336;83.690;2023-03-01T20:06:08;98961.34;;;-0.58;65.83
74169;BME280;62523;53.336;83.690;2023-03-01T20:11:11;98929.63;;;-0.70;66.34
74169;BME280;62523;53.336;83.690;2023-03-01T20:16:17;98944.16;;;-0.61;66.25
74169;BME280;62523;53.336;83.690;2023-03-01T20:21:20;98934.66;;;-0.60;65.95
74169;BME280;62523;53.336;83.690;2023-03-01T20:26:21;98938.97;;;-0.59;66.17
74169;BME280;62523;53.336;83.690;2023-03-01T20:31:24;98943.13;;;-0.52;65.96
74169;BME280;62523;53.336;83.690;2023-03-01T20:36:29;98928.34;;;-0.46;65.57
74169;BME280;62523;53.336;83.690;2023-03-01T20:41:33;98918.91;;;-0.47;65.69
74169;BME280;62523;53.336;83.690;2023-03-01T20:46:35;98907.66;;;-0.46;65.30
74169;BME280;62523;53.336;83.690;2023-03-01T20:51:36;98898.22;;;-0.48;66.03
74169;BME280;62523;53.336;83.690;2023-03-01T20:56:38;98908.47;;;-0.42;65.93
74169;BME280;62523;53.336;83.690;2023-03-01T21:01:39;98907.50;;;-0.36;66.01
74169;BME280;62523;53.336;83.690;2023-03-01T21:06:40;98884.22;;;-0.38;65.83
74169;BME280;62523;53.336;83.690;2023-03-01T21:11:42;98886.63;;;-0.29;65.52
74169;BME280;62523;53.336;83.690;2023-03-01T21:16:43;98868.59;;;-0.32;66.11
74169;BME280;62523;53.336;83.690;2023-03-01T21:21:47;98862.59;;;-0.34;66.55
74169;BME280;62523;53.336;83.690;2023-03-01T21:26:49;98862.53;;;-0.32;66.94
74169;BME280;62523;53.336;83.690;2023-03-01T21:31:50;98860.97;;;-0.39;67.61
74169;BME280;62523;53.336;83.690;2023-03-01T21:36:51;98856.59;;;-0.36;67.96
74169;BME280;62523;53.336;83.690;2023-03-01T21:41:52;98883.50;;;-0.46;68.61
74169;BME280;62523;53.336;83.690;2023-03-01T21:46:53;98881.84;;;-0.49;69.59
74169;BME280;62523;53.336;83.690;2023-03-01T21:51:55;98886.09;;;-0.45;69.51
74169;BME280;62523;53.336;83.690;2023-03-01T21:56:56;98869.63;;;-0.40;69.36
74169;BME280;62523;53.336;83.690;2023-03-01T22:01:57;98859.16;;;-0.36;69.53
74169;BME280;62523;53.336;83.690;2023-03-01T22:06:58;98853.06;;;-0.32;69.96
74169;BME280;62523;53.336;83.690;2023-03-01T22:12:02;98846.16;;;-0.33;70.30
74169;BME280;62523;53.336;83.690;2023-03-01T22:17:03;98840.84;;;-0.25;69.75
74169;BME280;62523;53.336;83.690;2023-03-01T22:22:05;98821.44;;;-0.48;70.00
74169;BME280;62523;53.336;83.690;2023-03-01T22:27:06;98851.06;;;-0.19;69.80
74169;BME280;62523;53.336;83.690;2023-03-01T22:32:07;98834.88;;;-0.30;70.40
74169;BME280;62523;53.336;83.690;2023-03-01T22:37:09;98844.16;;;-0.18;69.92
74169;BME280;62523;53.336;83.690;2023-03-01T22:42:11;98840.03;;;-0.27;70.22
74169;BME280;62523;53.336;83.690;2023-03-01T22:47:12;98849.75;;;-0.40;70.80
74169;BME280;62523;53.336;83.690;2023-03-01T22:52:13;98850.31;;;-0.24;70.60
74169;BME280;62523;53.336;83.690;2023-03-01T22:57:14;98832.38;;;-0.33;70.99
74169;BME280;62523;53.336;83.690;2023-03-01T23:02:15;98837.34;;;-0.23;70.59
74169;BME280;62523;53.336;83.690;2023-03-01T23:07:16;98809.69;;;-0.21;70.09
74169;BME280;62523;53.336;83.690;2023-03-01T23:12:17;98838.97;;;-0.18;70.59
74169;BME280;62523;53.336;83.690;2023-03-01T23:17:19;98839.81;;;-0.18;70.24
74169;BME280;62523;53.336;83.690;2023-03-01T23:22:20;98821.59;;;-0.13;69.96
74169;BME280;62523;53.336;83.690;2023-03-01T23:27:21;98815.81;;;-0.26;70.13
74169;BME280;62523;53.336;83.690;2023-03-01T23:32:22;98818.69;;;0.02;69.86
74169;BME280;62523;53.336;83.690;2023-03-01T23:37:29;98825.84;;;-0.09;70.37
74169;BME280;62523;53.336;83.690;2023-03-01T23:42:31;98833.78;;;-0.17;70.97
74169;BME280;62523;53.336;83.690;2023-03-01T23:47:32;98841.34;;;-0.08;70.85
74169;BME280;62523;53.336;83.690;2023-03-01T23:52:37;98839.38;;;0.04;70.23
74169;BME280;62523;53.336;83.690;2023-03-01T23:57:39;98823.19;;;-0.06;70.49
